Time;durP1;ratioP1;P1;durP2;ratioP2;P2;SDS_P1;SDS_P2;PMS_P1;PMS_P2;Temp;Humidity;BMP_temperature;BMP_pressure;BME280_temperature;BME280_humidity;BME280_pressure;Samples;Min_cycle;Max_cycle;Signal;HPM_P1;HPM_P2
2022/10/11 00:01:35;;;;;;;13.97;7.60;;;;;;;;;;5051486;28;20694;-89
2022/10/11 00:04:02;;;;;;;13.43;6.77;;;;;;;;;;5051330;28;20875;-89
2022/10/11 00:06:29;;;;;;;11.10;7.40;;;;;;;;;;5034032;28;20670;-89
2022/10/11 00:08:56;;;;;;;17.03;6.33;;;;;;;;;;5051319;28;20265;-89
2022/10/11 00:11:23;;;;;;;14.20;7.07;;;;;;;;;;5051934;28;20226;-89
2022/10/11 00:13:50;;;;;;;12.33;6.90;;;;;;;;;;5051420;28;20761;-89
2022/10/11 00:16:19;;;;;;;13.90;7.20;;;;;;;;;;5051825;28;20206;-88
2022/10/11 00:18:46;;;;;;;11.60;6.57;;;;;;;;;;5057612;28;20251;-89
2022/10/11 00:21:14;;;;;;;12.97;6.27;;;;;;;;;;5052161;28;20230;-88
2022/10/11 00:23:42;;;;;;;10.47;6.07;;;;;;;;;;5051154;28;20233;-89
2022/10/11 00:26:10;;;;;;;7.27;5.53;;;;;;;;;;5051589;28;20198;-89
2022/10/11 00:28:38;;;;;;;12.57;6.27;;;;;;;;;;5051087;28;20575;-90
2022/10/11 00:31:07;;;;;;;12.27;6.00;;;;;;;;;;5051375;28;20260;-89
2022/10/11 00:33:35;;;;;;;14.83;6.27;;;;;;;;;;5051113;28;20230;-90
2022/10/11 00:36:02;;;;;;;8.50;6.03;;;;;;;;;;5051412;28;20202;-89
2022/10/11 00:38:29;;;;;;;13.00;7.20;;;;;;;;;;5051243;28;20238;-89
2022/10/11 00:40:56;;;;;;;9.93;6.60;;;;;;;;;;5051698;28;20221;-89
2022/10/11 00:43:25;;;;;;;12.17;7.00;;;;;;;;;;5051050;28;20237;-89
2022/10/11 00:46:02;;;;;;;10.80;5.77;;;;;;;;;;5051898;28;20206;-89
2022/10/11 00:48:32;;;;;;;11.57;6.60;;;;;;;;;;5051175;28;20229;-89
2022/10/11 00:51:02;;;;;;;10.87;6.73;;;;;;;;;;5051710;28;20222;-90
2022/10/11 00:53:30;;;;;;;14.03;6.23;;;;;;;;;;5051556;28;20230;-90
2022/10/11 00:56:00;;;;;;;10.27;5.77;;;;;;;;;;5051772;28;20214;-89
2022/10/11 00:58:28;;;;;;;12.47;6.43;;;;;;;;;;5051140;28;20261;-90
2022/10/11 01:00:55;;;;;;;10.70;6.47;;;;;;;;;;5062319;28;20228;-89
2022/10/11 01:03:25;;;;;;;12.20;6.87;;;;;;;;;;5051670;28;20700;-90
2022/10/11 01:05:53;;;;;;;9.27;6.40;;;;;;;;;;5050038;28;20213;-89
2022/10/11 01:08:22;;;;;;;10.93;6.47;;;;;;;;;;5052106;28;20226;-89
2022/10/11 01:10:49;;;;;;;12.20;7.37;;;;;;;;;;5054071;28;20225;-89
2022/10/11 01:13:22;;;;;;;11.73;7.70;;;;;;;;;;5054634;28;20244;-89
2022/10/11 01:15:56;;;;;;;10.47;7.53;;;;;;;;;;5054948;28;20201;-89
2022/10/11 01:18:26;;;;;;;12.40;7.17;;;;;;;;;;5054063;28;20257;-89
2022/10/11 01:20:58;;;;;;;11.93;7.30;;;;;;;;;;5055177;28;20229;-90
2022/10/11 01:23:33;;;;;;;14.27;7.83;;;;;;;;;;5054342;28;20234;-89
2022/10/11 01:26:13;;;;;;;9.00;6.97;;;;;;;;;;5054698;28;20189;-89
2022/10/11 01:28:42;;;;;;;9.20;6.77;;;;;;;;;;5054788;28;20241;-89
2022/10/11 01:31:16;;;;;;;10.77;6.90;;;;;;;;;;5055769;28;20737;-89
2022/10/11 01:33:46;;;;;;;13.23;7.17;;;;;;;;;;5055161;28;20237;-89
2022/10/11 01:36:14;;;;;;;10.80;6.67;;;;;;;;;;5055213;28;20217;-89
2022/10/11 01:38:45;;;;;;;8.97;6.10;;;;;;;;;;5054682;28;20234;-90
2022/10/11 01:41:14;;;;;;;9.73;5.73;;;;;;;;;;5055624;28;20237;-90
2022/10/11 01:43:44;;;;;;;10.00;6.10;;;;;;;;;;5054924;28;20234;-90
2022/10/11 01:46:13;;;;;;;7.73;5.70;;;;;;;;;;5055604;28;20190;-89
2022/10/11 01:48:50;;;;;;;8.00;5.47;;;;;;;;;;5054482;28;20234;-92
2022/10/11 01:51:18;;;;;;;9.67;5.00;;;;;;;;;;5054823;28;20224;-90
2022/10/11 01:53:56;;;;;;;7.33;4.97;;;;;;;;;;5054469;28;20237;-90
2022/10/11 01:56:33;;;;;;;6.87;5.57;;;;;;;;;;5057018;28;20216;-89
2022/10/11 01:59:06;;;;;;;8.60;4.80;;;;;;;;;;5039772;28;20241;-90
2022/10/11 02:01:38;;;;;;;7.60;4.70;;;;;;;;;;5057047;28;20226;-89
2022/10/11 02:04:10;;;;;;;7.93;4.97;;;;;;;;;;5044687;28;20238;-89
2022/10/11 02:06:40;;;;;;;10.60;4.30;;;;;;;;;;5058547;28;20186;-89
2022/10/11 02:09:12;;;;;;;6.37;4.20;;;;;;;;;;5056187;28;20230;-89
2022/10/11 02:11:39;;;;;;;7.00;4.27;;;;;;;;;;5056329;28;20698;-89
2022/10/11 02:14:09;;;;;;;4.87;4.03;;;;;;;;;;5055994;28;20585;-89
2022/10/11 02:16:40;;;;;;;7.10;3.87;;;;;;;;;;5055006;28;20210;-89
2022/10/11 02:19:08;;;;;;;6.40;3.67;;;;;;;;;;5053862;28;20233;-89
2022/10/11 02:21:38;;;;;;;4.87;3.50;;;;;;;;;;5053717;28;20230;-90
2022/10/11 02:24:07;;;;;;;4.53;3.30;;;;;;;;;;5051919;28;20233;-90
2022/10/11 02:26:35;;;;;;;7.93;3.50;;;;;;;;;;5054432;28;20213;-90
2022/10/11 02:29:05;;;;;;;6.10;3.30;;;;;;;;;;5052857;28;20225;-91
2022/10/11 02:31:33;;;;;;;8.97;3.73;;;;;;;;;;5053330;28;20230;-90
2022/10/11 02:34:06;;;;;;;6.67;3.70;;;;;;;;;;5053006;28;20222;-92
2022/10/11 02:36:37;;;;;;;5.60;3.07;;;;;;;;;;5053765;28;20221;-90
2022/10/11 02:39:08;;;;;;;7.83;3.00;;;;;;;;;;5052647;28;20575;-89
2022/10/11 02:41:38;;;;;;;5.07;3.50;;;;;;;;;;5053376;28;20226;-90
2022/10/11 02:44:07;;;;;;;12.90;5.13;;;;;;;;;;5052826;28;20233;-89
2022/10/11 02:46:34;;;;;;;7.10;2.90;;;;;;;;;;5053425;28;20205;-91
2022/10/11 02:49:03;;;;;;;8.30;3.13;;;;;;;;;;5052466;28;20233;-88
2022/10/11 02:51:31;;;;;;;4.37;2.80;;;;;;;;;;5053499;28;20229;-89
2022/10/11 02:53:58;;;;;;;8.93;3.00;;;;;;;;;;5052171;28;20229;-89
2022/10/11 02:56:25;;;;;;;2.93;2.60;;;;;;;;;;5052715;28;20213;-89
2022/10/11 02:58:52;;;;;;;3.73;2.37;;;;;;;;;;5052380;28;20225;-89
2022/10/11 03:01:19;;;;;;;6.23;2.70;;;;;;;;;;5052670;28;20221;-89
2022/10/11 03:03:47;;;;;;;5.00;2.60;;;;;;;;;;5052255;28;20240;-90
2022/10/11 03:06:15;;;;;;;5.87;2.70;;;;;;;;;;5052516;28;20206;-89
2022/10/11 03:08:42;;;;;;;6.10;2.80;;;;;;;;;;5052122;28;20713;-89
2022/10/11 03:11:09;;;;;;;5.73;2.67;;;;;;;;;;5052536;28;20619;-88
2022/10/11 03:13:36;;;;;;;8.10;2.70;;;;;;;;;;5052113;28;20737;-89
2022/10/11 03:16:03;;;;;;;6.00;2.30;;;;;;;;;;5052678;28;20206;-89
2022/10/11 03:18:30;;;;;;;6.10;2.60;;;;;;;;;;5052021;28;20237;-89
2022/10/11 03:20:58;;;;;;;7.63;2.80;;;;;;;;;;5052242;28;20233;-90
2022/10/11 03:23:26;;;;;;;9.73;2.67;;;;;;;;;;5051957;28;20709;-90
2022/10/11 03:25:53;;;;;;;5.77;2.60;;;;;;;;;;5052342;28;20234;-89
2022/10/11 03:28:20;;;;;;;5.87;2.30;;;;;;;;;;5052221;28;20228;-90
2022/10/11 03:30:48;;;;;;;5.33;2.47;;;;;;;;;;5059035;28;20237;-90
2022/10/11 03:33:16;;;;;;;8.23;2.60;;;;;;;;;;5054154;28;20705;-89
2022/10/11 03:35:44;;;;;;;13.10;2.73;;;;;;;;;;5051998;28;20697;-89
2022/10/11 03:38:12;;;;;;;6.23;2.60;;;;;;;;;;5051336;28;20230;-89
2022/10/11 03:40:41;;;;;;;7.43;2.60;;;;;;;;;;5052032;28;20279;-89
2022/10/11 03:43:08;;;;;;;5.90;2.47;;;;;;;;;;5032133;28;20238;-83
2022/10/11 03:45:35;;;;;;;5.10;2.20;;;;;;;;;;5047465;28;20736;-83
2022/10/11 03:48:02;;;;;;;6.83;2.50;;;;;;;;;;5051312;28;20614;-83
2022/10/11 03:50:30;;;;;;;5.20;2.30;;;;;;;;;;5051798;28;20221;-82
2022/10/11 03:52:57;;;;;;;3.30;2.07;;;;;;;;;;5051566;28;20237;-82
2022/10/11 03:55:24;;;;;;;4.53;2.50;;;;;;;;;;5051782;28;20249;-82
2022/10/11 03:57:52;;;;;;;6.33;2.27;;;;;;;;;;5050931;28;20729;-82
2022/10/11 04:00:20;;;;;;;6.50;2.13;;;;;;;;;;5050822;28;20218;-82
2022/10/11 04:02:47;;;;;;;9.67;2.80;;;;;;;;;;5051214;28;20233;-82
2022/10/11 04:05:14;;;;;;;8.43;2.37;;;;;;;;;;5051683;28;20241;-82
2022/10/11 04:07:41;;;;;;;8.80;2.70;;;;;;;;;;5050895;28;20240;-82
2022/10/11 04:10:08;;;;;;;8.10;2.67;;;;;;;;;;5046960;28;20199;-82
2022/10/11 04:12:37;;;;;;;8.10;2.50;;;;;;;;;;5049010;28;20706;-84
2022/10/11 04:15:06;;;;;;;3.80;2.20;;;;;;;;;;5051433;28;20202;-84
2022/10/11 04:17:33;;;;;;;7.07;2.53;;;;;;;;;;5050589;28;20611;-84
2022/10/11 04:20:00;;;;;;;5.37;2.43;;;;;;;;;;5051363;28;20213;-84
2022/10/11 04:22:27;;;;;;;5.70;2.20;;;;;;;;;;5050664;28;20682;-84
2022/10/11 04:24:54;;;;;;;5.90;2.30;;;;;;;;;;5050786;28;21437;-84
2022/10/11 04:27:21;;;;;;;9.40;2.50;;;;;;;;;;5050783;28;20659;-83
2022/10/11 04:29:49;;;;;;;5.93;2.37;;;;;;;;;;5051326;28;20202;-84
2022/10/11 04:32:18;;;;;;;6.83;2.37;;;;;;;;;;5050702;28;20789;-85
2022/10/11 04:34:45;;;;;;;10.97;2.47;;;;;;;;;;5051240;28;20217;-84
2022/10/11 04:37:12;;;;;;;4.90;2.40;;;;;;;;;;5046730;28;20202;-84
2022/10/11 04:39:40;;;;;;;6.97;2.50;;;;;;;;;;5051408;28;20202;-84
2022/10/11 04:42:07;;;;;;;5.50;2.03;;;;;;;;;;5050721;28;20218;-84
2022/10/11 04:44:34;;;;;;;4.97;2.10;;;;;;;;;;5051716;28;20221;-83
2022/10/11 04:47:01;;;;;;;6.73;2.20;;;;;;;;;;5054504;28;20297;-83
2022/10/11 04:49:29;;;;;;;6.60;2.47;;;;;;;;;;5054462;28;20240;-84
2022/10/11 04:51:57;;;;;;;11.60;3.23;;;;;;;;;;5054854;28;20722;-84
2022/10/11 04:54:26;;;;;;;7.20;2.30;;;;;;;;;;5054375;28;20714;-84
2022/10/11 04:56:53;;;;;;;5.43;2.50;;;;;;;;;;5054645;28;20242;-85
2022/10/11 04:59:20;;;;;;;8.07;2.50;;;;;;;;;;5054285;28;20237;-85
2022/10/11 05:01:47;;;;;;;7.17;2.50;;;;;;;;;;5054781;28;20726;-85
2022/10/11 05:04:14;;;;;;;5.77;2.80;;;;;;;;;;5054226;28;20233;-85
2022/10/11 05:06:43;;;;;;;9.53;3.13;;;;;;;;;;5054877;28;20312;-84
2022/10/11 05:09:10;;;;;;;8.57;2.40;;;;;;;;;;5053883;28;20658;-81
2022/10/11 05:11:37;;;;;;;8.60;2.87;;;;;;;;;;5054415;28;20234;-79
2022/10/11 05:14:04;;;;;;;6.10;2.57;;;;;;;;;;5054049;28;20248;-80
2022/10/11 05:16:31;;;;;;;9.80;2.73;;;;;;;;;;5054430;28;20218;-81
2022/10/11 05:18:58;;;;;;;8.00;2.80;;;;;;;;;;5053979;28;20245;-81
2022/10/11 05:21:26;;;;;;;5.23;2.53;;;;;;;;;;5054215;28;20222;-81
2022/10/11 05:23:55;;;;;;;8.73;2.40;;;;;;;;;;5048853;28;20234;-81
2022/10/11 05:26:23;;;;;;;8.67;2.40;;;;;;;;;;5053872;28;20237;-80
2022/10/11 05:28:51;;;;;;;9.47;2.87;;;;;;;;;;5053660;28;20230;-81
2022/10/11 05:31:18;;;;;;;14.33;2.60;;;;;;;;;;5054020;28;20272;-81
2022/10/11 05:33:45;;;;;;;7.77;2.47;;;;;;;;;;5053140;28;20260;-80
2022/10/11 05:36:13;;;;;;;11.70;2.43;;;;;;;;;;5053895;28;20205;-80
2022/10/11 05:38:40;;;;;;;9.67;2.80;;;;;;;;;;5053263;28;20238;-80
2022/10/11 05:41:08;;;;;;;5.47;2.40;;;;;;;;;;5053285;28;20222;-80
2022/10/11 05:43:36;;;;;;;10.27;2.40;;;;;;;;;;5053374;28;20279;-80
2022/10/11 05:46:03;;;;;;;5.73;2.77;;;;;;;;;;5053987;28;20226;-80
2022/10/11 05:48:30;;;;;;;7.93;2.60;;;;;;;;;;5053067;28;20234;-80
2022/10/11 05:51:01;;;;;;;8.13;3.00;;;;;;;;;;5054125;28;20713;-80
2022/10/11 05:53:28;;;;;;;8.30;2.83;;;;;;;;;;5054603;28;20710;-80
2022/10/11 05:55:55;;;;;;;12.13;2.50;;;;;;;;;;5054669;28;20575;-80
2022/10/11 05:58:23;;;;;;;13.37;3.00;;;;;;;;;;5054604;28;20244;-80
2022/10/11 06:00:51;;;;;;;8.47;2.70;;;;;;;;;;5054659;28;20222;-81
2022/10/11 06:03:19;;;;;;;7.07;2.60;;;;;;;;;;5054724;28;20237;-81
2022/10/11 06:05:46;;;;;;;6.83;2.10;;;;;;;;;;5054847;28;20226;-80
2022/10/11 06:08:14;;;;;;;5.97;2.63;;;;;;;;;;5054511;28;20230;-80
2022/10/11 06:10:43;;;;;;;8.37;2.93;;;;;;;;;;5054491;28;20317;-80
2022/10/11 06:13:11;;;;;;;4.40;2.40;;;;;;;;;;5054584;28;20620;-81
2022/10/11 06:15:40;;;;;;;7.30;2.53;;;;;;;;;;5054675;28;20202;-81
2022/10/11 06:18:07;;;;;;;10.20;2.90;;;;;;;;;;5054296;28;20238;-81
2022/10/11 06:23:37;;;;;;;5.60;2.83;;;;;;;;;;5054068;28;20266;-81
2022/10/11 06:26:05;;;;;;;10.50;2.60;;;;;;;;;;5054748;28;20233;-82
2022/10/11 06:28:33;;;;;;;6.27;2.50;;;;;;;;;;5054702;28;20641;-81
2022/10/11 06:31:03;;;;;;;9.50;2.73;;;;;;;;;;5054240;28;20230;-79
2022/10/11 06:33:30;;;;;;;8.10;2.90;;;;;;;;;;5054179;28;20232;-79
2022/10/11 06:35:58;;;;;;;8.83;2.77;;;;;;;;;;5054301;28;20214;-79
2022/10/11 06:38:25;;;;;;;7.20;2.97;;;;;;;;;;5053668;28;20245;-79
2022/10/11 06:40:52;;;;;;;14.03;2.90;;;;;;;;;;5054164;28;20230;-79
2022/10/11 06:43:19;;;;;;;6.93;2.97;;;;;;;;;;5053775;28;20259;-79
2022/10/11 06:45:46;;;;;;;9.07;2.70;;;;;;;;;;5053797;28;20594;-79
2022/10/11 06:48:15;;;;;;;10.00;3.10;;;;;;;;;;5053683;28;20686;-79
2022/10/11 06:50:42;;;;;;;8.53;3.00;;;;;;;;;;5054139;28;20570;-84
2022/10/11 06:56:13;;;;;;;7.87;3.13;;;;;;;;;;5053900;28;20169;-83
2022/10/11 06:58:41;;;;;;;15.47;2.93;;;;;;;;;;5053664;28;20234;-83
2022/10/11 07:01:09;;;;;;;5.77;2.77;;;;;;;;;;5053015;28;20233;-84
2022/10/11 07:03:37;;;;;;;3.20;2.50;;;;;;;;;;5052069;28;20737;-83
2022/10/11 07:06:06;;;;;;;7.43;3.33;;;;;;;;;;5062321;28;20217;-84
2022/10/11 07:08:33;;;;;;;7.07;3.00;;;;;;;;;;5064813;28;20627;-85
2022/10/11 07:11:01;;;;;;;6.83;2.93;;;;;;;;;;5072617;28;20697;-84
2022/10/11 07:13:28;;;;;;;17.40;3.13;;;;;;;;;;5072025;28;20241;-84
2022/10/11 07:15:55;;;;;;;10.03;3.03;;;;;;;;;;5072759;28;20186;-84
2022/10/11 07:18:23;;;;;;;10.93;3.10;;;;;;;;;;5072200;28;20237;-85
2022/10/11 07:20:51;;;;;;;15.23;3.73;;;;;;;;;;5072397;28;20236;-87
2022/10/11 07:23:18;;;;;;;13.77;3.00;;;;;;;;;;5071979;28;20240;-85
2022/10/11 07:25:45;;;;;;;10.57;3.93;;;;;;;;;;5072273;28;20697;-85
2022/10/11 07:28:13;;;;;;;9.63;2.53;;;;;;;;;;5053622;28;20229;-86
2022/10/11 07:30:40;;;;;;;18.30;3.17;;;;;;;;;;5052366;28;20245;-86
2022/10/11 07:33:08;;;;;;;9.27;2.60;;;;;;;;;;5051632;28;20253;-86
2022/10/11 07:35:35;;;;;;;12.43;2.60;;;;;;;;;;5052636;28;20562;-86
2022/10/11 07:38:04;;;;;;;9.77;3.00;;;;;;;;;;5051808;28;20604;-86
2022/10/11 07:40:31;;;;;;;7.53;3.10;;;;;;;;;;5052322;28;20229;-85
2022/10/11 07:42:59;;;;;;;4.93;2.60;;;;;;;;;;5051713;28;20242;-86
2022/10/11 07:45:27;;;;;;;10.50;2.80;;;;;;;;;;5052316;28;20295;-86
2022/10/11 07:47:56;;;;;;;8.67;3.40;;;;;;;;;;5051603;28;20233;-85
2022/10/11 07:50:23;;;;;;;11.53;3.10;;;;;;;;;;5052184;28;20229;-86
2022/10/11 07:52:50;;;;;;;10.03;2.93;;;;;;;;;;5051646;28;20241;-86
2022/10/11 07:55:18;;;;;;;7.20;2.93;;;;;;;;;;5051649;28;20206;-86
2022/10/11 07:57:46;;;;;;;8.30;3.03;;;;;;;;;;5051093;28;20234;-87
2022/10/11 08:00:13;;;;;;;4.63;2.70;;;;;;;;;;5053316;28;20235;-86
2022/10/11 08:02:40;;;;;;;6.27;2.77;;;;;;;;;;5053283;28;20230;-87
2022/10/11 08:05:09;;;;;;;13.53;3.10;;;;;;;;;;5067876;28;20711;-85
2022/10/11 08:07:37;;;;;;;10.93;2.90;;;;;;;;;;5077392;28;20237;-88
2022/10/11 08:10:04;;;;;;;6.43;2.57;;;;;;;;;;5079109;28;20251;-87
2022/10/11 08:12:33;;;;;;;13.03;2.80;;;;;;;;;;5060665;28;20235;-86
2022/10/11 08:15:00;;;;;;;9.77;2.80;;;;;;;;;;5057219;28;20210;-87
2022/10/11 08:17:27;;;;;;;8.63;2.60;;;;;;;;;;5056729;28;20229;-88
2022/10/11 08:19:54;;;;;;;8.43;2.40;;;;;;;;;;5059108;28;20582;-88
2022/10/11 08:22:21;;;;;;;8.03;3.13;;;;;;;;;;5059734;28;20233;-86
2022/10/11 08:24:49;;;;;;;7.20;2.63;;;;;;;;;;5058141;28;20213;-83
2022/10/11 08:27:16;;;;;;;7.33;2.77;;;;;;;;;;5060102;28;20225;-84
2022/10/11 08:29:45;;;;;;;8.17;2.57;;;;;;;;;;5078381;28;20215;-84
2022/10/11 08:32:12;;;;;;;10.07;2.87;;;;;;;;;;5072173;28;20251;-86
2022/10/11 08:34:39;;;;;;;7.77;2.13;;;;;;;;;;5058904;28;20217;-86
2022/10/11 08:37:06;;;;;;;5.23;2.47;;;;;;;;;;5059664;28;20202;-89
2022/10/11 08:39:33;;;;;;;8.57;2.60;;;;;;;;;;5059150;28;20218;-89
2022/10/11 08:42:03;;;;;;;12.63;2.73;;;;;;;;;;5059542;28;20237;-88
2022/10/11 08:44:35;;;;;;;12.43;3.30;;;;;;;;;;5058097;28;20240;-87
2022/10/11 08:47:06;;;;;;;7.30;2.57;;;;;;;;;;5059489;28;20713;-86
2022/10/11 08:49:34;;;;;;;5.10;2.80;;;;;;;;;;5069731;28;20689;-86
2022/10/11 08:52:03;;;;;;;7.17;2.70;;;;;;;;;;5077663;28;20239;-86
2022/10/11 08:54:35;;;;;;;10.53;3.13;;;;;;;;;;5077220;28;20241;-86
2022/10/11 08:57:03;;;;;;;9.90;2.10;;;;;;;;;;5077598;28;20204;-86
2022/10/11 08:59:33;;;;;;;9.77;2.30;;;;;;;;;;5076452;28;20244;-86
2022/10/11 09:02:04;;;;;;;10.93;2.57;;;;;;;;;;5064906;28;20594;-86
2022/10/11 09:04:32;;;;;;;8.60;2.47;;;;;;;;;;5055068;28;20234;-86
2022/10/11 09:07:03;;;;;;;4.87;2.00;;;;;;;;;;5036715;28;20357;-87
2022/10/11 09:09:43;;;;;;;5.63;2.70;;;;;;;;;;5035636;28;20234;-88
2022/10/11 09:12:17;;;;;;;9.93;2.30;;;;;;;;;;5035638;28;20230;-89
2022/10/11 09:14:53;;;;;;;6.30;2.10;;;;;;;;;;5035903;28;20683;-90
2022/10/11 09:17:26;;;;;;;7.17;2.53;;;;;;;;;;5035225;28;20617;-88
2022/10/11 09:20:16;;;;;;;7.80;2.40;;;;;;;;;;5045342;28;20686;-87
2022/10/11 09:22:49;;;;;;;8.53;2.30;;;;;;;;;;5049022;28;20242;-89
2022/10/11 09:25:22;;;;;;;14.33;2.97;;;;;;;;;;5054595;28;20214;-86
2022/10/11 09:27:54;;;;;;;7.47;2.20;;;;;;;;;;5053585;28;20702;-86
2022/10/11 09:30:22;;;;;;;4.20;2.00;;;;;;;;;;5053624;28;20236;-88
2022/10/11 09:32:52;;;;;;;7.67;2.50;;;;;;;;;;5053601;28;20237;-87
2022/10/11 09:35:22;;;;;;;7.57;2.60;;;;;;;;;;5054205;28;20190;-87
2022/10/11 09:37:53;;;;;;;5.43;2.37;;;;;;;;;;5053390;28;20245;-87
2022/10/11 09:40:23;;;;;;;6.23;2.10;;;;;;;;;;5054019;28;20652;-88
2022/10/11 09:42:50;;;;;;;3.17;1.87;;;;;;;;;;5052832;28;20604;-87
2022/10/11 09:45:18;;;;;;;9.43;2.07;;;;;;;;;;5053630;28;20217;-87
2022/10/11 09:47:45;;;;;;;9.27;1.93;;;;;;;;;;5052962;28;20245;-88
2022/10/11 09:50:15;;;;;;;6.93;2.40;;;;;;;;;;5048908;28;20206;-89
2022/10/11 09:52:49;;;;;;;5.27;2.23;;;;;;;;;;5033293;28;20552;-87
2022/10/11 09:55:30;;;;;;;10.20;3.80;;;;;;;;;;5033958;28;20634;-87
2022/10/11 09:57:57;;;;;;;6.87;2.30;;;;;;;;;;5033339;28;20231;-87
2022/10/11 10:00:25;;;;;;;9.83;2.50;;;;;;;;;;5033580;28;20232;-87
2022/10/11 10:02:53;;;;;;;6.23;2.60;;;;;;;;;;5032942;28;20241;-87
2022/10/11 10:05:22;;;;;;;10.93;2.27;;;;;;;;;;5033686;28;20218;-87
2022/10/11 10:08:16;;;;;;;7.37;2.33;;;;;;;;;;5033425;28;20242;-87
2022/10/11 10:10:47;;;;;;;7.93;2.10;;;;;;;;;;5025819;28;20236;-87
2022/10/11 10:13:20;;;;;;;5.17;1.90;;;;;;;;;;5079791;28;20320;-87
2022/10/11 10:15:49;;;;;;;8.97;2.27;;;;;;;;;;5075084;28;20193;-86
2022/10/11 10:18:21;;;;;;;14.03;2.33;;;;;;;;;;5073644;28;20232;-87
2022/10/11 10:20:52;;;;;;;9.33;2.37;;;;;;;;;;5055414;28;20226;-87
2022/10/11 10:23:21;;;;;;;5.13;2.17;;;;;;;;;;5053222;28;20634;-87
2022/10/11 10:25:50;;;;;;;4.50;2.13;;;;;;;;;;5053418;28;20761;-88
2022/10/11 10:28:18;;;;;;;4.40;1.83;;;;;;;;;;5052837;28;20242;-88
2022/10/11 10:30:53;;;;;;;6.53;1.80;;;;;;;;;;5053125;28;20229;-88
2022/10/11 10:33:21;;;;;;;5.00;1.97;;;;;;;;;;5053690;28;20293;-89
2022/10/11 10:35:50;;;;;;;5.63;1.60;;;;;;;;;;5053604;28;20205;-89
2022/10/11 10:38:22;;;;;;;4.83;2.13;;;;;;;;;;5053429;28;20264;-89
2022/10/11 10:40:52;;;;;;;8.43;2.03;;;;;;;;;;5053795;28;20328;-89
2022/10/11 10:43:20;;;;;;;5.43;2.10;;;;;;;;;;5052715;28;20237;-89
2022/10/11 10:45:58;;;;;;;5.83;1.80;;;;;;;;;;5054963;28;20218;-90
2022/10/11 10:48:29;;;;;;;3.83;1.70;;;;;;;;;;5053203;28;20233;-90
2022/10/11 10:50:59;;;;;;;7.27;2.03;;;;;;;;;;5053480;28;20585;-90
2022/10/11 10:53:31;;;;;;;2.57;1.67;;;;;;;;;;5052589;28;20238;-89
2022/10/11 10:56:03;;;;;;;3.63;1.43;;;;;;;;;;5053471;28;20269;-88
2022/10/11 10:58:40;;;;;;;2.17;1.30;;;;;;;;;;5051827;28;20729;-88
2022/10/11 11:01:11;;;;;;;6.63;2.00;;;;;;;;;;5053460;28;20217;-89
2022/10/11 11:03:44;;;;;;;8.70;1.90;;;;;;;;;;5053357;28;20238;-89
2022/10/11 11:06:16;;;;;;;6.30;3.60;;;;;;;;;;5057926;28;20191;-89
2022/10/11 11:08:51;;;;;;;3.30;1.75;;;;;;;;;;5059162;28;20241;-89
2022/10/11 11:11:30;;;;;;;3.28;1.70;;;;;;;;;;5058864;28;20221;-90
2022/10/11 11:14:01;;;;;;;4.53;1.42;;;;;;;;;;5062123;28;20245;-89
2022/10/11 11:16:31;;;;;;;3.92;1.77;;;;;;;;;;5053017;28;20199;-89
2022/10/11 11:19:01;;;;;;;4.40;1.98;;;;;;;;;;5051964;28;20226;-88
2022/10/11 11:21:34;;;;;;;4.22;1.70;;;;;;;;;;5053115;28;20238;-89
2022/10/11 11:24:06;;;;;;;4.55;1.73;;;;;;;;;;5052904;28;20234;-89
2022/10/11 11:26:38;;;;;;;5.97;2.20;;;;;;;;;;5053042;28;20587;-90
2022/10/11 11:29:11;;;;;;;3.60;1.48;;;;;;;;;;5052622;28;20230;-89
2022/10/11 11:31:46;;;;;;;3.33;1.70;;;;;;;;;;5053432;28;20237;-91
2022/10/11 11:34:17;;;;;;;4.55;1.88;;;;;;;;;;5052384;28;20241;-89
2022/10/11 11:36:47;;;;;;;5.53;1.52;;;;;;;;;;5052979;28;20202;-90
2022/10/11 11:39:17;;;;;;;5.53;2.15;;;;;;;;;;5052324;28;20883;-89
2022/10/11 11:41:47;;;;;;;3.58;1.40;;;;;;;;;;5052813;28;20229;-90
2022/10/11 11:44:18;;;;;;;6.82;1.80;;;;;;;;;;5052216;28;20238;-90
2022/10/11 11:46:46;;;;;;;3.88;1.60;;;;;;;;;;5053150;28;20226;-90
2022/10/11 11:49:15;;;;;;;6.00;2.60;;;;;;;;;;5051789;28;20241;-90
2022/10/11 11:51:44;;;;;;;3.28;1.33;;;;;;;;;;5052870;28;20230;-89
2022/10/11 11:54:18;;;;;;;4.78;1.42;;;;;;;;;;5052013;28;20238;-89
2022/10/11 11:56:51;;;;;;;3.05;1.50;;;;;;;;;;5052766;28;20186;-89
2022/10/11 11:59:21;;;;;;;4.47;2.13;;;;;;;;;;5052365;28;20240;-89
2022/10/11 12:01:52;;;;;;;3.83;1.80;;;;;;;;;;5061691;28;20716;-90
2022/10/11 12:04:23;;;;;;;3.33;1.77;;;;;;;;;;5052473;28;20229;-89
2022/10/11 12:07:00;;;;;;;3.25;1.10;;;;;;;;;;5052565;28;20230;-90
2022/10/11 12:09:27;;;;;;;5.55;1.67;;;;;;;;;;5051954;28;20713;-89
2022/10/11 12:11:57;;;;;;;4.05;1.77;;;;;;;;;;5052278;28;20741;-89
2022/10/11 12:14:26;;;;;;;7.32;1.88;;;;;;;;;;5051487;28;20264;-89
2022/10/11 12:17:23;;;;;;;4.93;1.52;;;;;;;;;;5052305;28;20202;-89
2022/10/11 12:20:03;;;;;;;3.70;1.80;;;;;;;;;;4973012;28;20234;-88
2022/10/11 12:22:41;;;;;;;8.23;1.80;;;;;;;;;;5042578;28;20622;-89
2022/10/11 12:25:27;;;;;;;3.88;1.98;;;;;;;;;;5052166;28;20239;-89
2022/10/11 12:27:58;;;;;;;3.25;1.88;;;;;;;;;;5051153;28;20246;-90
2022/10/11 12:30:45;;;;;;;4.03;1.48;;;;;;;;;;5051755;28;20233;-89
2022/10/11 12:33:14;;;;;;;6.28;1.88;;;;;;;;;;5051166;28;20237;-88
2022/10/11 12:35:50;;;;;;;5.72;1.77;;;;;;;;;;5051732;28;20220;-90
2022/10/11 12:38:22;;;;;;;5.22;1.60;;;;;;;;;;5051599;28;20229;-90
2022/10/11 12:40:50;;;;;;;4.95;1.63;;;;;;;;;;5051700;28;20222;-85
2022/10/11 12:43:38;;;;;;;3.72;1.35;;;;;;;;;;5050560;28;20229;-84
2022/10/11 12:46:24;;;;;;;7.28;1.67;;;;;;;;;;5044840;28;20217;-84
2022/10/11 12:48:55;;;;;;;2.28;1.00;;;;;;;;;;5050063;28;20237;-84
2022/10/11 12:51:33;;;;;;;2.90;1.23;;;;;;;;;;5050917;28;20234;-84
2022/10/11 12:54:09;;;;;;;2.90;1.55;;;;;;;;;;5060811;28;20225;-83
2022/10/11 12:56:45;;;;;;;4.65;2.03;;;;;;;;;;5070977;28;20193;-84
2022/10/11 12:59:16;;;;;;;3.80;1.45;;;;;;;;;;5056179;28;20249;-84
2022/10/11 13:01:48;;;;;;;5.00;2.05;;;;;;;;;;5050712;28;20609;-84
2022/10/11 13:04:17;;;;;;;4.70;1.67;;;;;;;;;;5054991;28;20340;-85
2022/10/11 13:06:46;;;;;;;4.22;1.20;;;;;;;;;;5053139;28;20624;-85
2022/10/11 13:09:16;;;;;;;6.18;2.47;;;;;;;;;;5053336;28;20233;-85
2022/10/11 13:11:46;;;;;;;5.95;1.50;;;;;;;;;;5054412;28;20233;-84
2022/10/11 13:14:16;;;;;;;5.40;1.63;;;;;;;;;;5053814;28;20230;-84
2022/10/11 13:16:46;;;;;;;5.45;2.05;;;;;;;;;;5054447;28;20213;-85
2022/10/11 13:19:16;;;;;;;4.15;1.65;;;;;;;;;;5053470;28;20709;-85
2022/10/11 13:21:43;;;;;;;6.45;2.10;;;;;;;;;;5063112;28;20245;-84
2022/10/11 13:24:12;;;;;;;4.95;1.73;;;;;;;;;;5042670;28;20237;-84
2022/10/11 13:26:40;;;;;;;3.45;1.38;;;;;;;;;;5053618;28;20205;-85
2022/10/11 13:29:14;;;;;;;4.15;1.30;;;;;;;;;;5057401;28;20598;-84
2022/10/11 13:31:41;;;;;;;3.25;1.33;;;;;;;;;;5055217;28;20329;-82
2022/10/11 13:34:12;;;;;;;3.80;1.45;;;;;;;;;;5054138;28;20241;-82
2022/10/11 13:36:40;;;;;;;2.58;1.20;;;;;;;;;;5054911;28;20194;-83
2022/10/11 13:39:07;;;;;;;5.90;1.42;;;;;;;;;;5053426;28;20736;-83
2022/10/11 13:41:35;;;;;;;3.95;1.38;;;;;;;;;;5054078;28;20599;-82
2022/10/11 13:44:03;;;;;;;4.07;1.65;;;;;;;;;;5052518;28;20230;-83
2022/10/11 13:46:31;;;;;;;7.63;2.65;;;;;;;;;;5052805;28;20221;-82
2022/10/11 13:48:59;;;;;;;3.72;1.98;;;;;;;;;;5052533;28;20238;-83
2022/10/11 13:51:31;;;;;;;5.65;1.75;;;;;;;;;;5058677;28;20214;-83
2022/10/11 13:54:00;;;;;;;7.30;2.28;;;;;;;;;;5053026;28;20226;-83
2022/10/11 13:56:28;;;;;;;5.55;1.63;;;;;;;;;;5053948;28;20213;-83
2022/10/11 13:58:55;;;;;;;3.65;1.58;;;;;;;;;;5053188;28;20237;-84
2022/10/11 14:01:24;;;;;;;4.22;1.58;;;;;;;;;;5053381;28;20226;-82
2022/10/11 14:03:54;;;;;;;6.45;2.20;;;;;;;;;;5052979;28;20230;-83
2022/10/11 14:06:21;;;;;;;7.80;2.03;;;;;;;;;;5053398;28;20663;-84
2022/10/11 14:08:50;;;;;;;4.13;1.67;;;;;;;;;;5052394;28;20713;-83
2022/10/11 14:11:32;;;;;;;5.72;1.52;;;;;;;;;;5053473;28;20753;-83
2022/10/11 14:13:59;;;;;;;5.15;1.20;;;;;;;;;;5052969;28;20230;-83
2022/10/11 14:16:29;;;;;;;3.58;1.55;;;;;;;;;;5053223;28;20210;-83
2022/10/11 14:19:04;;;;;;;3.03;1.50;;;;;;;;;;5031739;28;20227;-83
2022/10/11 14:21:33;;;;;;;4.68;1.40;;;;;;;;;;5033453;28;20237;-82
2022/10/11 14:24:01;;;;;;;3.38;1.40;;;;;;;;;;5032428;28;20727;-82
2022/10/11 14:26:33;;;;;;;5.13;1.75;;;;;;;;;;5033316;28;20210;-82
2022/10/11 14:29:02;;;;;;;4.97;1.60;;;;;;;;;;5045751;28;20229;-82
2022/10/11 14:31:29;;;;;;;5.38;1.60;;;;;;;;;;5052769;28;20230;-82
2022/10/11 14:33:57;;;;;;;2.25;1.48;;;;;;;;;;5052212;28;20234;-82
2022/10/11 14:36:24;;;;;;;4.65;1.60;;;;;;;;;;5053055;28;20202;-82
2022/10/11 14:38:52;;;;;;;4.25;1.95;;;;;;;;;;5052061;28;20312;-82
2022/10/11 14:41:19;;;;;;;1.73;1.48;;;;;;;;;;5052480;28;20724;-81
2022/10/11 14:43:47;;;;;;;3.80;1.50;;;;;;;;;;5052159;28;20241;-82
2022/10/11 14:46:20;;;;;;;2.33;1.73;;;;;;;;;;5052406;28;20212;-82
2022/10/11 14:48:47;;;;;;;4.45;1.48;;;;;;;;;;5047857;28;20237;-83
2022/10/11 14:51:14;;;;;;;4.30;1.73;;;;;;;;;;5052437;28;20721;-83
2022/10/11 14:53:45;;;;;;;2.10;1.33;;;;;;;;;;5051940;28;20241;-83
2022/10/11 14:56:12;;;;;;;4.63;1.40;;;;;;;;;;5051901;28;20292;-84
2022/10/11 14:58:39;;;;;;;5.07;1.40;;;;;;;;;;5051497;28;20284;-83
2022/10/11 15:01:10;;;;;;;4.40;1.77;;;;;;;;;;5052545;28;20773;-83